createdAt,value
2023-02-04T00:02:09.060Z,3.13
2023-02-04T00:04:35.878Z,2.05
2023-02-04T00:07:02.586Z,1.95
2023-02-04T00:09:29.321Z,2.13
2023-02-04T00:11:55.953Z,2.10
2023-02-04T00:14:22.788Z,3.00
2023-02-04T00:16:49.616Z,1.35
2023-02-04T00:19:17.053Z,2.38
2023-02-04T00:21:43.858Z,1.52
2023-02-04T00:24:10.486Z,2.13
2023-02-04T00:26:37.320Z,3.25
2023-02-04T00:29:04.026Z,3.75
2023-02-04T00:31:31.765Z,1.92
2023-02-04T00:33:59.755Z,2.25
2023-02-04T00:36:26.524Z,1.77
2023-02-04T00:38:53.204Z,1.80
2023-02-04T00:41:20.300Z,2.80
2023-02-04T00:43:47.023Z,1.50
2023-02-04T00:46:13.722Z,1.60
2023-02-04T00:48:40.425Z,1.63
2023-02-04T00:51:07.176Z,1.55
2023-02-04T00:53:33.982Z,2.83
2023-02-04T00:56:00.720Z,2.08
2023-02-04T00:58:27.486Z,2.75
2023-02-04T01:00:54.129Z,1.58
2023-02-04T01:03:20.856Z,1.45
2023-02-04T01:05:47.593Z,1.30
2023-02-04T01:08:14.262Z,3.00
2023-02-04T01:10:41.201Z,2.55
2023-02-04T01:13:09.225Z,2.05
2023-02-04T01:15:36.068Z,1.48
2023-02-04T01:18:03.078Z,2.15
2023-02-04T01:20:30.394Z,1.55
2023-02-04T01:22:57.266Z,2.00
2023-02-04T01:25:24.086Z,2.63
2023-02-04T01:27:50.813Z,2.40
2023-02-04T01:30:17.874Z,1.42
2023-02-04T01:32:44.742Z,1.83
2023-02-04T01:35:11.621Z,1.83
2023-02-04T01:37:38.565Z,2.40
2023-02-04T01:40:06.107Z,2.63
2023-02-04T01:42:34.590Z,1.15
2023-02-04T01:45:01.648Z,1.15
2023-02-04T01:47:28.329Z,1.75
2023-02-04T01:49:55.759Z,1.48
2023-02-04T01:52:23.607Z,2.17
2023-02-04T01:54:51.934Z,1.50
2023-02-04T01:57:18.773Z,1.55
2023-02-04T01:59:47.262Z,1.98
2023-02-04T02:02:44.789Z,1.95
2023-02-04T02:05:15.375Z,1.90
2023-02-04T02:07:42.403Z,1.83
2023-02-04T02:10:11.818Z,2.85
2023-02-04T02:15:06.065Z,1.13
2023-02-04T02:17:33.792Z,1.67
2023-02-04T02:20:00.925Z,1.35
2023-02-04T02:22:37.625Z,1.40
2023-02-04T02:25:12.207Z,2.25
2023-02-04T02:27:39.420Z,1.15
2023-02-04T02:30:09.583Z,2.22
2023-02-04T02:32:36.864Z,2.40
2023-02-04T02:35:06.795Z,2.08
2023-02-04T02:37:34.197Z,1.00
2023-02-04T02:40:00.933Z,1.40
2023-02-04T02:42:27.732Z,1.50
2023-02-04T02:44:54.793Z,1.25
2023-02-04T02:47:23.797Z,1.50
2023-02-04T02:49:53.128Z,2.17
2023-02-04T02:52:19.888Z,1.52
2023-02-04T02:54:47.426Z,2.03
2023-02-04T02:57:23.517Z,1.20
2023-02-04T02:59:50.507Z,2.30
2023-02-04T03:02:22.464Z,1.90
2023-02-04T03:04:56.078Z,2.00
2023-02-04T03:07:26.276Z,1.05
2023-02-04T03:09:54.412Z,1.10
2023-02-04T03:12:21.210Z,1.48
2023-02-04T03:14:48.238Z,1.67
2023-02-04T03:17:15.301Z,1.05
2023-02-04T03:19:42.397Z,1.00
2023-02-04T03:22:09.734Z,1.00
2023-02-04T03:24:37.095Z,1.23
2023-02-04T03:27:04.278Z,1.27
2023-02-04T03:29:30.907Z,1.20
2023-02-04T03:32:00.162Z,1.30
2023-02-04T03:36:53.750Z,1.00
2023-02-04T03:39:20.426Z,1.95
2023-02-04T03:41:47.184Z,0.70
2023-02-04T03:44:14.125Z,2.13
2023-02-04T03:46:40.972Z,1.15
2023-02-04T03:49:07.793Z,1.05
2023-02-04T03:51:34.611Z,1.65
2023-02-04T03:54:01.462Z,1.02
2023-02-04T03:56:28.322Z,1.45
2023-02-04T03:58:55.157Z,1.48
2023-02-04T04:01:21.820Z,1.35
2023-02-04T04:03:48.605Z,0.82
2023-02-04T04:06:15.311Z,0.93
2023-02-04T04:08:41.963Z,1.27
2023-02-04T04:11:08.867Z,1.30
2023-02-04T04:13:35.530Z,1.05
2023-02-04T04:16:03.906Z,1.95
2023-02-04T04:18:32.842Z,2.37
2023-02-04T04:20:59.768Z,1.00
2023-02-04T04:23:26.616Z,2.78
2023-02-04T04:25:53.549Z,0.75
2023-02-04T04:28:20.333Z,2.80
2023-02-04T04:30:46.973Z,2.50
2023-02-04T04:33:13.594Z,1.90
2023-02-04T04:35:40.279Z,1.30
2023-02-04T04:38:06.951Z,2.60
2023-02-04T04:40:33.830Z,1.23
2023-02-04T04:43:00.647Z,2.47
2023-02-04T04:45:27.368Z,3.72
2023-02-04T04:47:53.967Z,3.28
2023-02-04T04:50:20.757Z,2.08
2023-02-04T04:52:47.552Z,2.72
2023-02-04T04:55:14.560Z,5.80
2023-02-04T04:57:41.297Z,2.35
2023-02-04T05:00:09.541Z,2.17
2023-02-04T05:02:36.286Z,1.45
2023-02-04T05:05:03.081Z,2.50
2023-02-04T05:07:29.808Z,1.38
2023-02-04T05:09:56.688Z,1.80
2023-02-04T05:12:23.370Z,2.13
2023-02-04T05:14:49.984Z,2.40
2023-02-04T05:17:16.667Z,1.25
2023-02-04T05:19:43.305Z,1.70
2023-02-04T05:22:09.967Z,1.27
2023-02-04T05:24:36.539Z,2.92
2023-02-04T05:27:03.345Z,1.65
2023-02-04T05:29:30.139Z,1.65
2023-02-04T05:31:57.093Z,2.58
2023-02-04T05:34:23.913Z,1.40
2023-02-04T05:36:50.738Z,1.38
2023-02-04T05:39:17.475Z,2.42
2023-02-04T05:41:44.305Z,2.80
2023-02-04T05:44:11.170Z,1.65
2023-02-04T05:46:39.306Z,1.90
2023-02-04T05:49:07.486Z,1.00
2023-02-04T05:51:34.612Z,1.67
2023-02-04T05:54:01.246Z,1.80
2023-02-04T05:56:27.962Z,1.20
2023-02-04T05:58:54.635Z,1.20
2023-02-04T06:01:21.189Z,1.55
2023-02-04T06:03:47.797Z,1.73
2023-02-04T06:06:14.466Z,3.92
2023-02-04T06:08:41.121Z,2.25
2023-02-04T06:11:07.939Z,1.02
2023-02-04T06:13:34.972Z,4.63
2023-02-04T06:16:01.790Z,1.13
2023-02-04T06:18:28.599Z,1.83
2023-02-04T06:20:55.158Z,2.85
2023-02-04T06:23:21.950Z,1.92
2023-02-04T06:25:50.386Z,2.25
2023-02-04T06:28:17.263Z,1.77
2023-02-04T06:30:44.328Z,2.38
2023-02-04T06:33:11.097Z,1.63
2023-02-04T06:35:38.158Z,2.05
2023-02-04T06:38:04.839Z,2.25
2023-02-04T06:40:31.933Z,2.60
2023-02-04T06:42:58.729Z,1.30
2023-02-04T06:45:25.402Z,3.65
2023-02-04T06:47:52.095Z,2.35
2023-02-04T06:50:18.952Z,2.92
2023-02-04T06:52:46.724Z,2.03
2023-02-04T06:55:14.744Z,2.03
2023-02-04T06:57:41.703Z,2.33
2023-02-04T07:00:10.456Z,2.28
2023-02-04T07:02:39.468Z,1.50
2023-02-04T07:05:06.742Z,1.15
2023-02-04T07:07:33.616Z,2.28
2023-02-04T07:10:00.834Z,2.40
2023-02-04T07:12:27.676Z,1.88
2023-02-04T07:14:54.253Z,1.95
2023-02-04T07:17:21.089Z,2.47
2023-02-04T07:19:47.696Z,4.32
2023-02-04T07:22:14.391Z,2.28
2023-02-04T07:24:41.160Z,4.65
2023-02-04T07:27:07.816Z,4.78
2023-02-04T07:29:34.552Z,1.85
2023-02-04T07:32:01.503Z,1.55
2023-02-04T07:34:28.386Z,2.08
2023-02-04T07:36:55.259Z,4.80
2023-02-04T07:39:22.166Z,2.63
2023-02-04T07:41:48.922Z,5.43
2023-02-04T07:44:21.588Z,4.20
2023-02-04T07:46:48.215Z,1.90
2023-02-04T07:49:14.794Z,2.58
2023-02-04T07:51:41.540Z,3.80
2023-02-04T07:54:08.395Z,4.15
2023-02-04T07:56:35.290Z,3.92
2023-02-04T07:59:01.994Z,2.58
2023-02-04T08:01:28.641Z,2.38
2023-02-04T08:03:55.247Z,3.22
2023-02-04T08:06:21.930Z,2.40
2023-02-04T08:08:48.479Z,3.13
2023-02-04T08:11:15.384Z,4.07
2023-02-04T08:13:42.194Z,4.25
2023-02-04T08:16:10.073Z,3.08
2023-02-04T08:21:06.297Z,1.92
2023-02-04T08:23:33.415Z,7.68
2023-02-04T08:26:00.094Z,4.00
2023-02-04T08:28:26.774Z,6.10
2023-02-04T08:30:53.825Z,5.00
2023-02-04T08:33:22.196Z,9.25
2023-02-04T08:35:52.245Z,5.68
2023-02-04T08:38:18.928Z,9.23
2023-02-04T08:40:45.857Z,4.78
2023-02-04T08:43:12.538Z,10.13
2023-02-04T08:45:39.376Z,7.30
2023-02-04T08:48:07.750Z,8.25
2023-02-04T08:50:34.698Z,7.10
2023-02-04T08:53:01.340Z,10.07
2023-02-04T08:55:27.957Z,7.90
2023-02-04T08:57:54.588Z,5.88
2023-02-04T09:00:21.555Z,5.53
2023-02-04T09:02:48.176Z,13.27
2023-02-04T09:05:14.968Z,7.25
2023-02-04T09:07:41.896Z,10.50
2023-02-04T09:10:08.897Z,4.53
2023-02-04T09:12:38.478Z,7.07
2023-02-04T09:15:05.651Z,4.60
2023-02-04T09:17:32.331Z,7.10
2023-02-04T09:19:59.148Z,5.57
2023-02-04T09:22:25.981Z,5.70
2023-02-04T09:24:53.049Z,10.25
2023-02-04T09:27:19.982Z,3.83
2023-02-04T09:29:46.716Z,4.25
2023-02-04T09:32:13.344Z,3.05
2023-02-04T09:34:40.097Z,5.00
2023-02-04T09:37:06.778Z,4.00
2023-02-04T09:39:33.631Z,4.25
2023-02-04T09:42:00.406Z,5.53
2023-02-04T09:44:28.770Z,4.35
2023-02-04T09:46:58.715Z,5.63
2023-02-04T09:49:26.615Z,4.82
2023-02-04T09:51:54.387Z,4.50
2023-02-04T09:54:22.760Z,5.97
2023-02-04T09:56:50.425Z,4.57
2023-02-04T09:59:20.630Z,4.22
2023-02-04T10:02:11.577Z,5.50
2023-02-04T10:04:38.407Z,7.53
2023-02-04T10:07:12.140Z,8.77
2023-02-04T10:09:40.193Z,6.68
2023-02-04T10:12:07.542Z,5.60
2023-02-04T10:14:34.546Z,7.28
2023-02-04T10:17:01.572Z,4.38
2023-02-04T10:19:30.818Z,6.15
2023-02-04T10:21:58.067Z,9.23
2023-02-04T10:24:26.620Z,8.85
2023-02-04T10:26:54.224Z,6.23
2023-02-04T10:29:25.087Z,7.55
2023-02-04T10:31:52.809Z,5.97
2023-02-04T10:34:24.422Z,6.07
2023-02-04T10:36:54.367Z,6.35
2023-02-04T10:39:29.074Z,6.60
2023-02-04T10:41:59.990Z,7.20
2023-02-04T10:44:26.652Z,11.95
2023-02-04T10:47:20.348Z,8.02
2023-02-04T10:49:55.997Z,7.00
2023-02-04T10:52:30.444Z,7.88
2023-02-04T10:54:58.225Z,6.10
2023-02-04T10:57:28.678Z,6.22
2023-02-04T10:59:58.830Z,7.07
2023-02-04T11:02:25.418Z,8.73
2023-02-04T11:04:52.777Z,8.45
2023-02-04T11:07:20.726Z,5.90
2023-02-04T11:09:48.775Z,7.13
2023-02-04T11:12:42.262Z,6.03
2023-02-04T11:15:50.397Z,7.13
2023-02-04T11:18:23.332Z,8.33
2023-02-04T11:20:52.747Z,7.50
2023-02-04T11:26:07.707Z,8.05
2023-02-04T11:28:57.638Z,6.68
2023-02-04T11:31:24.622Z,7.38
2023-02-04T11:34:24.101Z,7.20
2023-02-04T11:36:59.748Z,6.30
2023-02-04T11:39:41.192Z,9.10
2023-02-04T11:42:41.145Z,7.05
2023-02-04T11:45:15.557Z,5.45
2023-02-04T11:47:44.254Z,5.18
2023-02-04T11:50:21.168Z,5.22
2023-02-04T11:52:48.039Z,7.63
2023-02-04T11:55:14.887Z,5.00
2023-02-04T11:57:43.938Z,4.65
2023-02-04T12:00:16.172Z,5.65
2023-02-04T12:02:48.380Z,7.88
2023-02-04T12:05:19.841Z,9.57
2023-02-04T12:07:47.637Z,8.77
2023-02-04T12:10:33.919Z,6.18
2023-02-04T12:13:00.560Z,8.65
2023-02-04T12:15:37.864Z,5.70
2023-02-04T12:18:09.771Z,8.18
2023-02-04T12:20:37.300Z,7.43
2023-02-04T12:23:04.382Z,8.70
2023-02-04T12:25:31.767Z,6.43
2023-02-04T12:27:58.781Z,4.15
2023-02-04T12:30:26.609Z,5.53
2023-02-04T12:32:53.599Z,4.80
2023-02-04T12:35:20.554Z,8.52
2023-02-04T12:37:47.248Z,5.75
2023-02-04T12:40:19.593Z,5.85
2023-02-04T12:42:46.546Z,7.00
2023-02-04T12:45:15.226Z,3.83
2023-02-04T12:47:42.329Z,8.88
2023-02-04T12:50:11.506Z,4.05
2023-02-04T12:52:39.454Z,5.50
2023-02-04T12:55:08.095Z,5.53
2023-02-04T12:57:35.315Z,8.25
2023-02-04T13:00:03.743Z,4.60
2023-02-04T13:02:30.719Z,4.77
2023-02-04T13:04:57.508Z,5.95
2023-02-04T13:07:24.305Z,6.55
2023-02-04T13:09:51.038Z,7.30
2023-02-04T13:12:17.860Z,5.80
2023-02-04T13:14:44.956Z,6.78
2023-02-04T13:17:11.768Z,5.18
2023-02-04T13:19:38.642Z,8.73
2023-02-04T13:22:05.364Z,6.90
2023-02-04T13:24:32.277Z,4.80
2023-02-04T13:26:59.160Z,5.63
2023-02-04T13:29:26.011Z,7.63
2023-02-04T13:31:52.939Z,5.35
2023-02-04T13:34:19.787Z,4.57
2023-02-04T13:36:46.557Z,4.60
2023-02-04T13:39:13.339Z,6.07
2023-02-04T13:41:40.975Z,5.18
2023-02-04T13:44:07.960Z,6.13
2023-02-04T13:46:34.946Z,5.18
2023-02-04T13:49:01.649Z,3.92
2023-02-04T13:51:28.496Z,4.43
2023-02-04T13:53:55.299Z,5.45
2023-02-04T13:56:22.206Z,4.40
2023-02-04T13:58:48.873Z,6.55
2023-02-04T14:01:15.608Z,4.93
2023-02-04T14:03:42.904Z,4.32
2023-02-04T14:06:13.189Z,6.07
2023-02-04T14:08:39.847Z,7.22
2023-02-04T14:11:07.404Z,6.50
2023-02-04T14:13:34.335Z,5.88
2023-02-04T14:16:01.053Z,5.28
2023-02-04T14:18:27.755Z,7.57
2023-02-04T14:20:54.408Z,5.53
2023-02-04T14:23:21.017Z,6.22
2023-02-04T14:25:47.653Z,5.65
2023-02-04T14:28:14.329Z,8.30
2023-02-04T14:30:41.036Z,5.32
2023-02-04T14:33:09.097Z,3.80
2023-02-04T14:35:37.590Z,5.15
2023-02-04T14:38:04.252Z,6.63
2023-02-04T14:40:31.203Z,6.60
2023-02-04T14:42:58.122Z,3.70
2023-02-04T14:45:24.829Z,4.93
2023-02-04T14:47:52.659Z,4.93
2023-02-04T14:50:19.406Z,5.32
2023-02-04T14:52:46.076Z,3.65
2023-02-04T14:55:14.379Z,3.70
2023-02-04T14:57:41.021Z,4.90
2023-02-04T15:00:08.482Z,6.07
2023-02-04T15:02:35.423Z,4.28
2023-02-04T15:05:02.412Z,4.22
2023-02-04T15:07:29.118Z,5.50
2023-02-04T15:09:56.016Z,5.45
2023-02-04T15:12:22.762Z,5.07
2023-02-04T15:14:49.512Z,6.45
2023-02-04T15:17:16.236Z,4.97
2023-02-04T15:19:42.955Z,5.80
2023-02-04T15:22:09.715Z,4.30
2023-02-04T15:24:36.405Z,5.03
2023-02-04T15:27:03.107Z,4.43
2023-02-04T15:29:30.548Z,4.55
2023-02-04T15:31:57.416Z,5.43
2023-02-04T15:34:24.603Z,2.63
2023-02-04T15:36:51.349Z,4.53
2023-02-04T15:39:18.037Z,6.82
2023-02-04T15:41:45.071Z,5.45
2023-02-04T15:44:12.689Z,4.57
2023-02-04T15:46:39.494Z,5.55
2023-02-04T15:49:06.178Z,3.95
2023-02-04T15:51:33.165Z,4.55
2023-02-04T15:53:59.976Z,6.50
2023-02-04T15:56:26.804Z,4.93
2023-02-04T15:58:54.799Z,4.40
2023-02-04T16:01:21.804Z,4.65
2023-02-04T16:03:50.767Z,4.35
2023-02-04T16:06:17.447Z,4.60
2023-02-04T16:08:44.217Z,5.30
2023-02-04T16:11:10.813Z,5.90
2023-02-04T16:13:37.501Z,4.45
2023-02-04T16:16:04.555Z,4.75
2023-02-04T16:18:31.405Z,6.03
2023-02-04T16:20:58.261Z,3.72
2023-02-04T16:23:25.144Z,4.18
2023-02-04T16:25:52.111Z,6.05
2023-02-04T16:28:18.887Z,4.85
2023-02-04T16:30:45.586Z,5.72
2023-02-04T16:33:12.350Z,3.72
2023-02-04T16:36:02.178Z,5.97
2023-02-04T16:38:29.569Z,3.97
2023-02-04T16:40:57.237Z,3.92
2023-02-04T16:43:24.497Z,5.20
2023-02-04T16:45:51.318Z,3.20
2023-02-04T16:48:18.043Z,4.45
2023-02-04T16:50:44.775Z,4.22
2023-02-04T16:53:15.048Z,5.60
2023-02-04T16:55:45.757Z,3.63
2023-02-04T16:58:13.546Z,6.00
2023-02-04T17:00:44.821Z,4.47
2023-02-04T17:03:13.174Z,6.03
2023-02-04T17:05:40.816Z,4.80
2023-02-04T17:08:08.170Z,4.60
2023-02-04T17:10:58.338Z,5.20
2023-02-04T17:13:25.018Z,4.07
2023-02-04T17:15:52.006Z,4.30
2023-02-04T17:18:18.709Z,5.05
2023-02-04T17:20:45.548Z,5.40
2023-02-04T17:23:12.409Z,3.28
2023-02-04T17:25:39.271Z,4.47
2023-02-04T17:28:06.230Z,3.75
2023-02-04T17:30:32.899Z,4.20
2023-02-04T17:32:59.631Z,3.78
2023-02-04T17:35:26.257Z,4.18
2023-02-04T17:37:54.021Z,4.38
2023-02-04T17:40:20.793Z,5.00
2023-02-04T17:42:47.470Z,4.20
2023-02-04T17:45:14.232Z,4.05
2023-02-04T17:47:41.184Z,3.25
2023-02-04T17:50:10.035Z,5.47
2023-02-04T17:52:37.949Z,4.97
2023-02-04T17:55:31.495Z,4.78
2023-02-04T17:58:01.209Z,4.20
2023-02-04T18:00:30.775Z,4.95
2023-02-04T18:02:57.885Z,5.03
2023-02-04T18:05:27.622Z,6.38
2023-02-04T18:08:01.921Z,4.57
2023-02-04T18:10:35.496Z,3.80
2023-02-04T18:13:11.967Z,5.53
2023-02-04T18:15:39.052Z,6.20
2023-02-04T18:18:20.831Z,4.85
2023-02-04T18:20:51.290Z,6.15
2023-02-04T18:23:19.335Z,7.38
2023-02-04T18:25:48.487Z,8.23
2023-02-04T18:28:20.875Z,3.78
2023-02-04T18:30:52.988Z,5.38
2023-02-04T18:33:26.064Z,5.38
2023-02-04T18:35:58.369Z,5.63
2023-02-04T18:38:39.186Z,4.35
2023-02-04T18:41:17.806Z,4.50
2023-02-04T18:43:51.139Z,5.65
2023-02-04T18:46:24.598Z,7.95
2023-02-04T18:49:00.073Z,8.00
2023-02-04T18:51:32.844Z,6.30
2023-02-04T18:54:21.195Z,7.05
2023-02-04T18:56:48.669Z,6.13
2023-02-04T18:59:19.595Z,3.90
2023-02-04T19:01:48.581Z,5.30
2023-02-04T19:04:22.381Z,4.60
2023-02-04T19:06:52.062Z,5.65
2023-02-04T19:09:27.586Z,4.53
2023-02-04T19:11:56.896Z,6.45
2023-02-04T19:16:52.765Z,6.05
2023-02-04T19:21:57.165Z,4.30
2023-02-04T19:24:27.872Z,4.10
2023-02-04T19:27:02.319Z,4.32
2023-02-04T19:29:42.496Z,5.22
2023-02-04T19:32:53.475Z,6.18
2023-02-04T19:35:23.022Z,11.10
2023-02-04T19:38:33.082Z,7.32
2023-02-04T19:41:00.431Z,22.90
2023-02-04T19:43:36.994Z,9.48
2023-02-04T19:46:25.160Z,10.60
2023-02-04T19:48:52.138Z,8.82
2023-02-04T19:51:20.167Z,9.25
2023-02-04T19:53:51.644Z,9.02
2023-02-04T19:56:39.061Z,12.55
2023-02-04T19:59:14.504Z,7.45
2023-02-04T20:01:41.419Z,7.07
2023-02-04T20:04:17.439Z,7.43
2023-02-04T20:06:45.305Z,11.05
2023-02-04T20:09:29.122Z,6.15
2023-02-04T20:12:15.569Z,4.95
2023-02-04T20:14:52.019Z,9.40
2023-02-04T20:17:36.373Z,5.93
2023-02-04T20:20:21.787Z,6.97
2023-02-04T20:22:54.408Z,7.47
2023-02-04T20:25:21.709Z,8.93
2023-02-04T20:27:55.372Z,7.35
2023-02-04T20:30:31.526Z,7.13
2023-02-04T20:33:10.918Z,4.80
2023-02-04T20:38:18.026Z,5.65
2023-02-04T20:40:46.736Z,5.07
2023-02-04T20:43:20.302Z,10.43
2023-02-04T20:45:50.827Z,5.90
2023-02-04T20:48:17.702Z,4.47
2023-02-04T20:50:56.662Z,6.97
2023-02-04T20:53:26.421Z,5.18
2023-02-04T20:56:03.380Z,6.93
2023-02-04T20:58:38.222Z,6.00
2023-02-04T21:01:19.490Z,4.82
2023-02-04T21:03:46.480Z,6.00
2023-02-04T21:06:31.610Z,6.88
2023-02-04T21:08:59.798Z,5.55
2023-02-04T21:11:26.983Z,6.22
2023-02-04T21:13:56.973Z,3.53
2023-02-04T21:16:23.634Z,4.75
2023-02-04T21:18:54.196Z,7.03
2023-02-04T21:21:23.212Z,4.93
2023-02-04T21:23:50.212Z,7.47
2023-02-04T21:26:17.102Z,4.78
2023-02-04T21:28:44.131Z,5.50
2023-02-04T21:31:11.608Z,4.78
2023-02-04T21:33:38.466Z,4.55
2023-02-04T21:36:05.717Z,5.03
2023-02-04T21:38:32.506Z,6.78
2023-02-04T21:40:59.078Z,5.50
2023-02-04T21:43:27.121Z,5.60
2023-02-04T21:45:53.692Z,4.38
2023-02-04T21:48:20.463Z,6.07
2023-02-04T21:50:47.078Z,4.78
2023-02-04T21:53:13.927Z,4.47
2023-02-04T21:55:40.669Z,3.22
2023-02-04T21:58:07.547Z,6.13
2023-02-04T22:00:35.367Z,4.28
2023-02-04T22:03:02.286Z,5.63
2023-02-04T22:05:29.057Z,4.45
2023-02-04T22:07:55.823Z,4.28
2023-02-04T22:10:25.644Z,5.57
2023-02-04T22:12:52.642Z,4.90
2023-02-04T22:15:22.609Z,5.68
2023-02-04T22:17:51.124Z,3.33
2023-02-04T22:20:18.983Z,4.45
2023-02-04T22:22:47.049Z,5.32
2023-02-04T22:25:16.080Z,4.03
2023-02-04T22:27:42.769Z,4.05
2023-02-04T22:30:12.202Z,4.30
2023-02-04T22:32:39.506Z,4.03
2023-02-04T22:35:10.427Z,4.45
2023-02-04T22:37:41.195Z,4.15
2023-02-04T22:40:09.448Z,5.45
2023-02-04T22:42:36.071Z,4.05
2023-02-04T22:45:03.852Z,4.68
2023-02-04T22:47:30.867Z,3.95
2023-02-04T22:49:57.692Z,3.70
2023-02-04T22:52:24.459Z,5.18
2023-02-04T22:54:52.071Z,3.50
2023-02-04T22:57:18.729Z,3.90
2023-02-04T22:59:45.515Z,4.50
2023-02-04T23:02:12.394Z,4.82
2023-02-04T23:04:39.276Z,4.05
2023-02-04T23:07:06.056Z,3.75
2023-02-04T23:09:32.888Z,4.97
2023-02-04T23:12:12.789Z,4.65
2023-02-04T23:14:47.228Z,4.63
2023-02-04T23:17:15.573Z,4.93
2023-02-04T23:19:42.711Z,3.58
2023-02-04T23:22:10.964Z,5.20
2023-02-04T23:24:38.177Z,3.85
2023-02-04T23:27:05.425Z,3.78
2023-02-04T23:29:32.721Z,4.95
2023-02-04T23:31:59.442Z,3.90
2023-02-04T23:34:26.156Z,5.07
2023-02-04T23:36:52.879Z,4.65
2023-02-04T23:39:20.739Z,5.07
2023-02-04T23:41:48.254Z,4.47
2023-02-04T23:44:15.384Z,4.90
2023-02-04T23:46:42.141Z,5.38
2023-02-04T23:49:09.220Z,4.75
2023-02-04T23:51:36.140Z,6.88
2023-02-04T23:54:02.908Z,4.50
2023-02-04T23:56:29.755Z,4.50
2023-02-04T23:58:56.429Z,4.65
